sensor_id;sensor_type;location;lat;lon;timestamp;P1;durP1;ratioP1;P2;durP2;ratioP2
568;SDS011;269;48.884;9.192;2023-05-21T00:01:23;16.33;;;14.80;;
568;SDS011;269;48.884;9.192;2023-05-21T00:03:50;17.07;;;15.70;;
568;SDS011;269;48.884;9.192;2023-05-21T00:06:17;17.90;;;16.27;;
568;SDS011;269;48.884;9.192;2023-05-21T00:08:45;17.67;;;16.07;;
568;SDS011;269;48.884;9.192;2023-05-21T00:11:13;17.80;;;16.30;;
568;SDS011;269;48.884;9.192;2023-05-21T00:13:40;17.10;;;15.80;;
568;SDS011;269;48.884;9.192;2023-05-21T00:16:07;17.10;;;15.70;;
568;SDS011;269;48.884;9.192;2023-05-21T00:18:35;18.00;;;16.60;;
568;SDS011;269;48.884;9.192;2023-05-21T00:21:03;16.63;;;15.33;;
568;SDS011;269;48.884;9.192;2023-05-21T00:23:31;17.03;;;15.60;;
568;SDS011;269;48.884;9.192;2023-05-21T00:25:58;17.47;;;16.03;;
568;SDS011;269;48.884;9.192;2023-05-21T00:28:26;17.50;;;16.00;;
568;SDS011;269;48.884;9.192;2023-05-21T00:30:54;18.03;;;16.63;;
568;SDS011;269;48.884;9.192;2023-05-21T00:33:21;17.20;;;15.70;;
568;SDS011;269;48.884;9.192;2023-05-21T00:35:50;16.63;;;15.33;;
568;SDS011;269;48.884;9.192;2023-05-21T00:38:18;18.63;;;17.23;;
568;SDS011;269;48.884;9.192;2023-05-21T00:40:46;18.03;;;16.53;;
568;SDS011;269;48.884;9.192;2023-05-21T00:43:13;17.83;;;16.33;;
568;SDS011;269;48.884;9.192;2023-05-21T00:45:42;18.30;;;16.73;;
568;SDS011;269;48.884;9.192;2023-05-21T00:48:10;18.37;;;16.87;;
568;SDS011;269;48.884;9.192;2023-05-21T00:50:39;20.10;;;18.40;;
568;SDS011;269;48.884;9.192;2023-05-21T00:53:07;17.63;;;16.20;;
568;SDS011;269;48.884;9.192;2023-05-21T00:55:35;18.87;;;17.27;;
568;SDS011;269;48.884;9.192;2023-05-21T00:58:02;19.07;;;17.50;;
568;SDS011;269;48.884;9.192;2023-05-21T01:00:29;18.73;;;17.23;;
568;SDS011;269;48.884;9.192;2023-05-21T01:02:59;18.83;;;17.23;;
568;SDS011;269;48.884;9.192;2023-05-21T01:05:27;19.57;;;17.97;;
568;SDS011;269;48.884;9.192;2023-05-21T01:07:55;19.93;;;18.23;;
568;SDS011;269;48.884;9.192;2023-05-21T01:10:23;18.73;;;17.20;;
568;SDS011;269;48.884;9.192;2023-05-21T01:12:52;19.07;;;17.57;;
568;SDS011;269;48.884;9.192;2023-05-21T01:15:22;20.77;;;18.97;;
568;SDS011;269;48.884;9.192;2023-05-21T01:17:49;19.73;;;18.13;;
568;SDS011;269;48.884;9.192;2023-05-21T01:20:18;20.80;;;19.10;;
568;SDS011;269;48.884;9.192;2023-05-21T01:22:49;18.30;;;16.80;;
568;SDS011;269;48.884;9.192;2023-05-21T01:25:18;20.60;;;18.80;;
568;SDS011;269;48.884;9.192;2023-05-21T01:27:45;19.90;;;18.17;;
568;SDS011;269;48.884;9.192;2023-05-21T01:30:12;20.70;;;19.00;;
568;SDS011;269;48.884;9.192;2023-05-21T01:32:42;20.47;;;18.77;;
568;SDS011;269;48.884;9.192;2023-05-21T01:35:16;19.83;;;18.20;;
568;SDS011;269;48.884;9.192;2023-05-21T01:37:49;19.73;;;18.00;;
568;SDS011;269;48.884;9.192;2023-05-21T01:40:22;21.57;;;19.67;;
568;SDS011;269;48.884;9.192;2023-05-21T01:42:54;19.67;;;17.97;;
568;SDS011;269;48.884;9.192;2023-05-21T01:45:22;19.37;;;17.77;;
568;SDS011;269;48.884;9.192;2023-05-21T01:47:50;20.97;;;19.17;;
568;SDS011;269;48.884;9.192;2023-05-21T01:50:21;19.70;;;18.10;;
568;SDS011;269;48.884;9.192;2023-05-21T01:52:50;19.90;;;18.10;;
568;SDS011;269;48.884;9.192;2023-05-21T01:55:21;19.50;;;17.90;;
568;SDS011;269;48.884;9.192;2023-05-21T01:57:50;20.30;;;18.60;;
568;SDS011;269;48.884;9.192;2023-05-21T02:00:18;20.10;;;18.50;;
568;SDS011;269;48.884;9.192;2023-05-21T02:02:45;20.33;;;18.60;;
568;SDS011;269;48.884;9.192;2023-05-21T02:05:12;20.43;;;18.63;;
568;SDS011;269;48.884;9.192;2023-05-21T02:07:40;20.47;;;18.73;;
568;SDS011;269;48.884;9.192;2023-05-21T02:10:09;21.23;;;19.47;;
568;SDS011;269;48.884;9.192;2023-05-21T02:12:37;21.17;;;19.27;;
568;SDS011;269;48.884;9.192;2023-05-21T02:15:05;19.97;;;17.97;;
568;SDS011;269;48.884;9.192;2023-05-21T02:17:33;20.60;;;18.90;;
568;SDS011;269;48.884;9.192;2023-05-21T02:20:00;20.63;;;18.93;;
568;SDS011;269;48.884;9.192;2023-05-21T02:22:35;19.87;;;18.17;;
568;SDS011;269;48.884;9.192;2023-05-21T02:25:04;20.80;;;18.83;;
568;SDS011;269;48.884;9.192;2023-05-21T02:27:34;20.60;;;18.80;;
568;SDS011;269;48.884;9.192;2023-05-21T02:30:01;20.27;;;18.57;;
568;SDS011;269;48.884;9.192;2023-05-21T02:32:29;20.60;;;18.87;;
568;SDS011;269;48.884;9.192;2023-05-21T02:34:57;21.70;;;20.00;;
568;SDS011;269;48.884;9.192;2023-05-21T02:37:24;20.83;;;19.13;;
568;SDS011;269;48.884;9.192;2023-05-21T02:39:52;21.03;;;19.13;;
568;SDS011;269;48.884;9.192;2023-05-21T02:42:20;21.80;;;19.90;;
568;SDS011;269;48.884;9.192;2023-05-21T02:44:49;21.67;;;19.90;;
568;SDS011;269;48.884;9.192;2023-05-21T02:47:17;22.10;;;20.30;;
568;SDS011;269;48.884;9.192;2023-05-21T02:49:45;20.70;;;19.00;;
568;SDS011;269;48.884;9.192;2023-05-21T02:52:12;21.00;;;19.30;;
568;SDS011;269;48.884;9.192;2023-05-21T02:54:40;20.27;;;18.43;;
568;SDS011;269;48.884;9.192;2023-05-21T02:57:07;20.63;;;18.93;;
568;SDS011;269;48.884;9.192;2023-05-21T02:59:34;21.33;;;19.63;;
568;SDS011;269;48.884;9.192;2023-05-21T03:02:03;21.60;;;19.70;;
568;SDS011;269;48.884;9.192;2023-05-21T03:04:30;20.50;;;18.80;;
568;SDS011;269;48.884;9.192;2023-05-21T03:07:03;21.77;;;19.97;;
568;SDS011;269;48.884;9.192;2023-05-21T03:09:30;22.73;;;20.73;;
568;SDS011;269;48.884;9.192;2023-05-21T03:11:58;21.77;;;20.00;;
568;SDS011;269;48.884;9.192;2023-05-21T03:14:25;22.50;;;20.50;;
568;SDS011;269;48.884;9.192;2023-05-21T03:16:53;21.20;;;19.40;;
568;SDS011;269;48.884;9.192;2023-05-21T03:19:21;21.90;;;20.00;;
568;SDS011;269;48.884;9.192;2023-05-21T03:21:49;21.87;;;19.90;;
568;SDS011;269;48.884;9.192;2023-05-21T03:24:16;22.57;;;20.67;;
568;SDS011;269;48.884;9.192;2023-05-21T03:26:43;23.00;;;21.10;;
568;SDS011;269;48.884;9.192;2023-05-21T03:29:12;21.67;;;19.87;;
568;SDS011;269;48.884;9.192;2023-05-21T03:31:39;20.90;;;19.10;;
568;SDS011;269;48.884;9.192;2023-05-21T03:34:06;20.37;;;18.70;;
568;SDS011;269;48.884;9.192;2023-05-21T03:36:35;22.80;;;20.87;;
568;SDS011;269;48.884;9.192;2023-05-21T03:39:02;21.50;;;19.70;;
568;SDS011;269;48.884;9.192;2023-05-21T03:41:29;21.93;;;19.80;;
568;SDS011;269;48.884;9.192;2023-05-21T03:43:56;21.70;;;19.90;;
568;SDS011;269;48.884;9.192;2023-05-21T03:46:23;21.67;;;19.87;;
568;SDS011;269;48.884;9.192;2023-05-21T03:48:52;21.20;;;19.40;;
568;SDS011;269;48.884;9.192;2023-05-21T03:51:19;22.40;;;20.60;;
568;SDS011;269;48.884;9.192;2023-05-21T03:53:48;21.10;;;19.40;;
568;SDS011;269;48.884;9.192;2023-05-21T03:56:15;21.13;;;19.40;;
568;SDS011;269;48.884;9.192;2023-05-21T03:58:42;22.00;;;20.00;;
568;SDS011;269;48.884;9.192;2023-05-21T04:01:09;22.47;;;20.37;;
568;SDS011;269;48.884;9.192;2023-05-21T04:03:37;21.57;;;19.77;;
568;SDS011;269;48.884;9.192;2023-05-21T04:06:04;20.77;;;18.90;;
568;SDS011;269;48.884;9.192;2023-05-21T04:08:34;21.57;;;19.67;;
568;SDS011;269;48.884;9.192;2023-05-21T04:11:03;21.23;;;19.47;;
568;SDS011;269;48.884;9.192;2023-05-21T04:13:30;20.57;;;18.73;;
568;SDS011;269;48.884;9.192;2023-05-21T04:15:57;20.40;;;18.70;;
568;SDS011;269;48.884;9.192;2023-05-21T04:18:24;21.33;;;19.43;;
568;SDS011;269;48.884;9.192;2023-05-21T04:20:51;20.83;;;19.03;;
568;SDS011;269;48.884;9.192;2023-05-21T04:23:18;21.00;;;19.20;;
568;SDS011;269;48.884;9.192;2023-05-21T04:25:47;21.57;;;19.60;;
568;SDS011;269;48.884;9.192;2023-05-21T04:28:16;20.47;;;18.73;;
568;SDS011;269;48.884;9.192;2023-05-21T04:30:44;21.27;;;19.37;;
568;SDS011;269;48.884;9.192;2023-05-21T04:33:11;20.37;;;18.30;;
568;SDS011;269;48.884;9.192;2023-05-21T04:35:42;20.60;;;18.90;;
568;SDS011;269;48.884;9.192;2023-05-21T04:38:10;21.57;;;19.73;;
568;SDS011;269;48.884;9.192;2023-05-21T04:40:38;20.70;;;18.90;;
568;SDS011;269;48.884;9.192;2023-05-21T04:43:05;21.80;;;19.90;;
568;SDS011;269;48.884;9.192;2023-05-21T04:45:35;20.53;;;18.83;;
568;SDS011;269;48.884;9.192;2023-05-21T04:48:02;21.53;;;19.57;;
568;SDS011;269;48.884;9.192;2023-05-21T04:50:29;19.80;;;18.10;;
568;SDS011;269;48.884;9.192;2023-05-21T04:52:57;20.33;;;18.63;;
568;SDS011;269;48.884;9.192;2023-05-21T04:55:24;21.00;;;19.20;;
568;SDS011;269;48.884;9.192;2023-05-21T04:57:52;20.60;;;18.73;;
568;SDS011;269;48.884;9.192;2023-05-21T05:00:20;19.73;;;18.03;;
568;SDS011;269;48.884;9.192;2023-05-21T05:02:51;19.57;;;17.93;;
568;SDS011;269;48.884;9.192;2023-05-21T05:05:18;20.97;;;19.03;;
568;SDS011;269;48.884;9.192;2023-05-21T05:07:45;20.23;;;18.60;;
568;SDS011;269;48.884;9.192;2023-05-21T05:10:12;20.43;;;18.73;;
568;SDS011;269;48.884;9.192;2023-05-21T05:12:39;18.93;;;17.30;;
568;SDS011;269;48.884;9.192;2023-05-21T05:15:06;20.50;;;18.73;;
568;SDS011;269;48.884;9.192;2023-05-21T05:17:34;19.00;;;17.40;;
568;SDS011;269;48.884;9.192;2023-05-21T05:20:03;19.83;;;18.27;;
568;SDS011;269;48.884;9.192;2023-05-21T05:22:31;19.97;;;18.27;;
568;SDS011;269;48.884;9.192;2023-05-21T05:24:58;20.73;;;19.00;;
568;SDS011;269;48.884;9.192;2023-05-21T05:27:25;19.57;;;17.97;;
568;SDS011;269;48.884;9.192;2023-05-21T05:29:52;19.23;;;17.53;;
568;SDS011;269;48.884;9.192;2023-05-21T05:32:19;18.37;;;16.80;;
568;SDS011;269;48.884;9.192;2023-05-21T05:34:46;18.40;;;16.90;;
568;SDS011;269;48.884;9.192;2023-05-21T05:37:15;17.20;;;15.90;;
568;SDS011;269;48.884;9.192;2023-05-21T05:39:42;18.57;;;17.00;;
568;SDS011;269;48.884;9.192;2023-05-21T05:42:09;19.90;;;18.30;;
568;SDS011;269;48.884;9.192;2023-05-21T05:44:36;19.73;;;18.03;;
568;SDS011;269;48.884;9.192;2023-05-21T05:47:03;19.27;;;17.63;;
568;SDS011;269;48.884;9.192;2023-05-21T05:49:35;19.20;;;17.50;;
568;SDS011;269;48.884;9.192;2023-05-21T05:52:02;20.23;;;18.47;;
568;SDS011;269;48.884;9.192;2023-05-21T05:54:30;19.53;;;17.93;;
568;SDS011;269;48.884;9.192;2023-05-21T05:56:57;19.07;;;17.47;;
568;SDS011;269;48.884;9.192;2023-05-21T05:59:24;19.20;;;17.70;;
568;SDS011;269;48.884;9.192;2023-05-21T06:01:51;18.93;;;17.37;;
568;SDS011;269;48.884;9.192;2023-05-21T06:04:18;19.40;;;17.70;;
568;SDS011;269;48.884;9.192;2023-05-21T06:06:45;18.80;;;17.27;;
568;SDS011;269;48.884;9.192;2023-05-21T06:09:12;19.20;;;17.60;;
568;SDS011;269;48.884;9.192;2023-05-21T06:11:41;18.80;;;17.20;;
568;SDS011;269;48.884;9.192;2023-05-21T06:14:08;18.60;;;17.10;;
568;SDS011;269;48.884;9.192;2023-05-21T06:16:35;18.40;;;16.80;;
568;SDS011;269;48.884;9.192;2023-05-21T06:19:02;19.73;;;18.03;;
568;SDS011;269;48.884;9.192;2023-05-21T06:21:29;18.37;;;16.87;;
568;SDS011;269;48.884;9.192;2023-05-21T06:23:56;20.03;;;18.23;;
568;SDS011;269;48.884;9.192;2023-05-21T06:26:23;18.10;;;16.60;;
568;SDS011;269;48.884;9.192;2023-05-21T06:28:51;18.60;;;17.10;;
568;SDS011;269;48.884;9.192;2023-05-21T06:31:18;17.60;;;16.10;;
568;SDS011;269;48.884;9.192;2023-05-21T06:33:46;17.43;;;16.00;;
568;SDS011;269;48.884;9.192;2023-05-21T06:36:14;16.50;;;15.20;;
568;SDS011;269;48.884;9.192;2023-05-21T06:38:41;17.50;;;16.10;;
568;SDS011;269;48.884;9.192;2023-05-21T06:41:08;17.40;;;16.00;;
568;SDS011;269;48.884;9.192;2023-05-21T06:43:35;17.63;;;16.20;;
568;SDS011;269;48.884;9.192;2023-05-21T06:46:03;19.57;;;17.83;;
568;SDS011;269;48.884;9.192;2023-05-21T06:48:31;18.53;;;17.00;;
568;SDS011;269;48.884;9.192;2023-05-21T06:50:58;17.80;;;16.30;;
568;SDS011;269;48.884;9.192;2023-05-21T06:53:25;18.47;;;17.07;;
568;SDS011;269;48.884;9.192;2023-05-21T06:55:52;17.43;;;16.03;;
568;SDS011;269;48.884;9.192;2023-05-21T06:58:19;16.67;;;15.20;;
568;SDS011;269;48.884;9.192;2023-05-21T07:00:46;16.93;;;15.43;;
568;SDS011;269;48.884;9.192;2023-05-21T07:03:15;18.00;;;16.70;;
568;SDS011;269;48.884;9.192;2023-05-21T07:05:42;16.70;;;15.40;;
568;SDS011;269;48.884;9.192;2023-05-21T07:08:09;17.90;;;16.37;;
568;SDS011;269;48.884;9.192;2023-05-21T07:10:36;16.00;;;14.80;;
568;SDS011;269;48.884;9.192;2023-05-21T07:13:03;15.63;;;14.43;;
568;SDS011;269;48.884;9.192;2023-05-21T07:15:30;15.37;;;14.10;;
568;SDS011;269;48.884;9.192;2023-05-21T07:17:57;15.60;;;14.30;;
568;SDS011;269;48.884;9.192;2023-05-21T07:20:26;15.53;;;14.33;;
568;SDS011;269;48.884;9.192;2023-05-21T07:22:53;15.27;;;13.90;;
568;SDS011;269;48.884;9.192;2023-05-21T07:25:20;14.77;;;13.67;;
568;SDS011;269;48.884;9.192;2023-05-21T07:27:47;15.37;;;14.03;;
568;SDS011;269;48.884;9.192;2023-05-21T07:30:14;14.30;;;13.10;;
568;SDS011;269;48.884;9.192;2023-05-21T07:32:41;14.83;;;13.63;;
568;SDS011;269;48.884;9.192;2023-05-21T07:35:08;15.10;;;13.90;;
568;SDS011;269;48.884;9.192;2023-05-21T07:37:36;13.67;;;12.53;;
568;SDS011;269;48.884;9.192;2023-05-21T07:40:05;14.50;;;13.43;;
568;SDS011;269;48.884;9.192;2023-05-21T07:42:33;12.23;;;11.23;;
568;SDS011;269;48.884;9.192;2023-05-21T07:45:00;13.00;;;12.00;;
568;SDS011;269;48.884;9.192;2023-05-21T07:47:28;12.67;;;11.70;;
568;SDS011;269;48.884;9.192;2023-05-21T07:49:55;11.33;;;10.53;;
568;SDS011;269;48.884;9.192;2023-05-21T07:52:23;12.27;;;11.37;;
568;SDS011;269;48.884;9.192;2023-05-21T07:54:51;12.50;;;11.60;;
568;SDS011;269;48.884;9.192;2023-05-21T07:57:19;13.03;;;12.03;;
568;SDS011;269;48.884;9.192;2023-05-21T07:59:46;12.03;;;11.13;;
568;SDS011;269;48.884;9.192;2023-05-21T08:02:13;11.80;;;10.90;;
568;SDS011;269;48.884;9.192;2023-05-21T08:04:40;11.37;;;10.47;;
568;SDS011;269;48.884;9.192;2023-05-21T08:07:08;11.67;;;10.87;;
568;SDS011;269;48.884;9.192;2023-05-21T08:09:37;11.30;;;10.40;;
568;SDS011;269;48.884;9.192;2023-05-21T08:12:06;10.33;;;9.63;;
568;SDS011;269;48.884;9.192;2023-05-21T08:14:33;11.17;;;10.37;;
568;SDS011;269;48.884;9.192;2023-05-21T08:17:00;10.93;;;9.93;;
568;SDS011;269;48.884;9.192;2023-05-21T08:19:27;10.90;;;10.10;;
568;SDS011;269;48.884;9.192;2023-05-21T08:21:55;11.00;;;10.20;;
568;SDS011;269;48.884;9.192;2023-05-21T08:24:22;11.50;;;10.50;;
568;SDS011;269;48.884;9.192;2023-05-21T08:26:50;10.80;;;10.10;;
568;SDS011;269;48.884;9.192;2023-05-21T08:31:47;10.67;;;9.87;;
568;SDS011;269;48.884;9.192;2023-05-21T08:34:14;11.30;;;10.47;;
568;SDS011;269;48.884;9.192;2023-05-21T08:36:42;10.87;;;10.03;;
568;SDS011;269;48.884;9.192;2023-05-21T08:39:11;11.00;;;10.00;;
568;SDS011;269;48.884;9.192;2023-05-21T08:41:38;10.70;;;9.83;;
568;SDS011;269;48.884;9.192;2023-05-21T08:44:10;10.73;;;9.93;;
568;SDS011;269;48.884;9.192;2023-05-21T08:46:39;11.80;;;11.00;;
568;SDS011;269;48.884;9.192;2023-05-21T08:49:09;11.50;;;10.70;;
568;SDS011;269;48.884;9.192;2023-05-21T08:51:38;10.23;;;9.53;;
568;SDS011;269;48.884;9.192;2023-05-21T08:54:06;10.03;;;9.33;;
568;SDS011;269;48.884;9.192;2023-05-21T08:56:33;9.60;;;8.90;;
568;SDS011;269;48.884;9.192;2023-05-21T08:59:01;10.63;;;9.73;;
568;SDS011;269;48.884;9.192;2023-05-21T09:01:28;10.07;;;9.37;;
568;SDS011;269;48.884;9.192;2023-05-21T09:03:59;9.80;;;9.10;;
568;SDS011;269;48.884;9.192;2023-05-21T09:06:28;10.30;;;9.50;;
568;SDS011;269;48.884;9.192;2023-05-21T09:08:58;9.50;;;8.83;;
568;SDS011;269;48.884;9.192;2023-05-21T09:11:29;9.40;;;8.70;;
568;SDS011;269;48.884;9.192;2023-05-21T09:13:57;10.03;;;9.33;;
568;SDS011;269;48.884;9.192;2023-05-21T09:16:40;10.10;;;9.40;;
568;SDS011;269;48.884;9.192;2023-05-21T09:19:11;11.00;;;10.07;;
568;SDS011;269;48.884;9.192;2023-05-21T09:21:38;10.33;;;9.60;;
568;SDS011;269;48.884;9.192;2023-05-21T09:24:05;10.20;;;9.40;;
568;SDS011;269;48.884;9.192;2023-05-21T09:26:35;10.13;;;9.33;;
568;SDS011;269;48.884;9.192;2023-05-21T09:29:02;11.40;;;10.60;;
568;SDS011;269;48.884;9.192;2023-05-21T09:31:29;9.70;;;9.00;;
568;SDS011;269;48.884;9.192;2023-05-21T09:33:57;10.80;;;9.90;;
568;SDS011;269;48.884;9.192;2023-05-21T09:36:26;10.43;;;9.53;;
568;SDS011;269;48.884;9.192;2023-05-21T09:38:54;9.93;;;9.23;;
568;SDS011;269;48.884;9.192;2023-05-21T09:41:30;9.93;;;9.33;;
568;SDS011;269;48.884;9.192;2023-05-21T09:43:58;9.70;;;9.00;;
568;SDS011;269;48.884;9.192;2023-05-21T09:46:25;9.83;;;9.10;;
568;SDS011;269;48.884;9.192;2023-05-21T09:48:52;10.17;;;9.37;;
568;SDS011;269;48.884;9.192;2023-05-21T09:51:19;8.50;;;7.90;;
568;SDS011;269;48.884;9.192;2023-05-21T09:53:49;9.00;;;8.40;;
568;SDS011;269;48.884;9.192;2023-05-21T09:56:18;8.87;;;8.17;;
568;SDS011;269;48.884;9.192;2023-05-21T09:58:49;8.57;;;8.07;;
568;SDS011;269;48.884;9.192;2023-05-21T10:01:19;10.33;;;9.30;;
568;SDS011;269;48.884;9.192;2023-05-21T10:03:47;8.37;;;7.80;;
568;SDS011;269;48.884;9.192;2023-05-21T10:06:19;8.73;;;8.03;;
568;SDS011;269;48.884;9.192;2023-05-21T10:08:48;10.80;;;9.93;;
568;SDS011;269;48.884;9.192;2023-05-21T10:11:19;9.40;;;8.70;;
568;SDS011;269;48.884;9.192;2023-05-21T10:13:50;9.63;;;8.93;;
568;SDS011;269;48.884;9.192;2023-05-21T10:16:21;8.60;;;7.90;;
568;SDS011;269;48.884;9.192;2023-05-21T10:18:49;9.23;;;8.53;;
568;SDS011;269;48.884;9.192;2023-05-21T10:21:18;8.87;;;8.07;;
568;SDS011;269;48.884;9.192;2023-05-21T10:23:48;8.57;;;7.97;;
568;SDS011;269;48.884;9.192;2023-05-21T10:26:17;7.87;;;7.30;;
568;SDS011;269;48.884;9.192;2023-05-21T10:28:45;7.50;;;7.00;;
568;SDS011;269;48.884;9.192;2023-05-21T10:31:14;7.67;;;7.17;;
568;SDS011;269;48.884;9.192;2023-05-21T10:33:41;8.00;;;7.50;;
568;SDS011;269;48.884;9.192;2023-05-21T10:36:08;6.70;;;6.20;;
568;SDS011;269;48.884;9.192;2023-05-21T10:38:37;7.43;;;7.03;;
568;SDS011;269;48.884;9.192;2023-05-21T10:41:05;8.17;;;7.57;;
568;SDS011;269;48.884;9.192;2023-05-21T10:43:37;7.60;;;7.10;;
568;SDS011;269;48.884;9.192;2023-05-21T10:52:19;7.90;;;7.40;;
568;SDS011;269;48.884;9.192;2023-05-21T10:55:04;6.73;;;6.33;;
568;SDS011;269;48.884;9.192;2023-05-21T11:00:50;7.77;;;7.20;;
568;SDS011;269;48.884;9.192;2023-05-21T11:03:20;7.50;;;6.90;;
568;SDS011;269;48.884;9.192;2023-05-21T11:05:51;7.47;;;6.97;;
568;SDS011;269;48.884;9.192;2023-05-21T11:08:20;7.43;;;6.93;;
568;SDS011;269;48.884;9.192;2023-05-21T11:10:51;6.50;;;6.10;;
568;SDS011;269;48.884;9.192;2023-05-21T11:13:21;7.93;;;7.43;;
568;SDS011;269;48.884;9.192;2023-05-21T11:16:04;7.70;;;7.20;;
568;SDS011;269;48.884;9.192;2023-05-21T11:21:28;8.13;;;6.93;;
568;SDS011;269;48.884;9.192;2023-05-21T11:23:58;7.63;;;7.13;;
568;SDS011;269;48.884;9.192;2023-05-21T11:26:27;7.80;;;7.30;;
568;SDS011;269;48.884;9.192;2023-05-21T11:29:07;7.90;;;7.20;;
568;SDS011;269;48.884;9.192;2023-05-21T11:31:34;7.07;;;6.67;;
568;SDS011;269;48.884;9.192;2023-05-21T11:34:07;7.13;;;6.63;;
568;SDS011;269;48.884;9.192;2023-05-21T11:36:37;7.77;;;7.17;;
568;SDS011;269;48.884;9.192;2023-05-21T11:39:08;7.80;;;7.20;;
568;SDS011;269;48.884;9.192;2023-05-21T11:41:50;7.13;;;6.73;;
568;SDS011;269;48.884;9.192;2023-05-21T11:44:19;7.17;;;6.67;;
568;SDS011;269;48.884;9.192;2023-05-21T11:47:03;7.17;;;6.67;;
568;SDS011;269;48.884;9.192;2023-05-21T11:49:31;7.53;;;7.03;;
568;SDS011;269;48.884;9.192;2023-05-21T11:51:58;8.30;;;7.60;;
568;SDS011;269;48.884;9.192;2023-05-21T11:54:26;15.97;;;12.40;;
568;SDS011;269;48.884;9.192;2023-05-21T11:56:53;11.10;;;10.30;;
568;SDS011;269;48.884;9.192;2023-05-21T11:59:22;8.47;;;7.87;;
568;SDS011;269;48.884;9.192;2023-05-21T12:01:49;7.13;;;6.63;;
568;SDS011;269;48.884;9.192;2023-05-21T12:04:16;6.77;;;6.27;;
568;SDS011;269;48.884;9.192;2023-05-21T12:06:43;6.93;;;6.43;;
568;SDS011;269;48.884;9.192;2023-05-21T12:09:12;7.30;;;6.73;;
568;SDS011;269;48.884;9.192;2023-05-21T12:11:39;7.23;;;6.77;;
568;SDS011;269;48.884;9.192;2023-05-21T12:14:07;6.90;;;6.50;;
568;SDS011;269;48.884;9.192;2023-05-21T12:16:36;7.40;;;6.70;;
568;SDS011;269;48.884;9.192;2023-05-21T12:19:05;7.70;;;7.20;;
568;SDS011;269;48.884;9.192;2023-05-21T12:21:32;7.60;;;7.10;;
568;SDS011;269;48.884;9.192;2023-05-21T12:24:00;8.07;;;7.40;;
568;SDS011;269;48.884;9.192;2023-05-21T12:26:28;8.40;;;7.70;;
568;SDS011;269;48.884;9.192;2023-05-21T12:28:57;7.80;;;7.20;;
568;SDS011;269;48.884;9.192;2023-05-21T12:31:24;8.60;;;7.97;;
568;SDS011;269;48.884;9.192;2023-05-21T12:33:53;8.43;;;7.83;;
568;SDS011;269;48.884;9.192;2023-05-21T12:36:20;7.17;;;6.60;;
568;SDS011;269;48.884;9.192;2023-05-21T12:38:48;7.60;;;7.00;;
568;SDS011;269;48.884;9.192;2023-05-21T12:41:16;8.27;;;7.60;;
568;SDS011;269;48.884;9.192;2023-05-21T12:43:43;6.93;;;6.43;;
568;SDS011;269;48.884;9.192;2023-05-21T12:46:12;7.50;;;6.90;;
568;SDS011;269;48.884;9.192;2023-05-21T12:48:46;8.30;;;7.70;;
568;SDS011;269;48.884;9.192;2023-05-21T12:51:15;7.50;;;6.90;;
568;SDS011;269;48.884;9.192;2023-05-21T12:53:43;9.60;;;9.00;;
568;SDS011;269;48.884;9.192;2023-05-21T12:56:10;8.20;;;7.40;;
568;SDS011;269;48.884;9.192;2023-05-21T12:58:37;8.50;;;7.90;;
568;SDS011;269;48.884;9.192;2023-05-21T13:01:05;7.13;;;6.50;;
568;SDS011;269;48.884;9.192;2023-05-21T13:03:33;6.47;;;6.07;;
568;SDS011;269;48.884;9.192;2023-05-21T13:06:00;7.20;;;6.70;;
568;SDS011;269;48.884;9.192;2023-05-21T13:08:29;6.53;;;6.13;;
568;SDS011;269;48.884;9.192;2023-05-21T13:10:58;6.80;;;6.30;;
568;SDS011;269;48.884;9.192;2023-05-21T13:13:25;7.20;;;6.70;;
568;SDS011;269;48.884;9.192;2023-05-21T13:15:53;6.70;;;6.10;;
568;SDS011;269;48.884;9.192;2023-05-21T13:18:20;7.20;;;6.63;;
568;SDS011;269;48.884;9.192;2023-05-21T13:20:47;7.00;;;6.43;;
568;SDS011;269;48.884;9.192;2023-05-21T13:23:16;7.13;;;6.63;;
568;SDS011;269;48.884;9.192;2023-05-21T13:25:44;7.57;;;7.07;;
568;SDS011;269;48.884;9.192;2023-05-21T13:28:11;6.90;;;6.50;;
568;SDS011;269;48.884;9.192;2023-05-21T13:30:39;6.90;;;6.30;;
568;SDS011;269;48.884;9.192;2023-05-21T13:33:06;6.73;;;6.23;;
568;SDS011;269;48.884;9.192;2023-05-21T13:35:33;5.97;;;5.57;;
568;SDS011;269;48.884;9.192;2023-05-21T13:38:01;7.13;;;6.53;;
568;SDS011;269;48.884;9.192;2023-05-21T13:40:28;7.87;;;7.37;;
568;SDS011;269;48.884;9.192;2023-05-21T13:42:56;7.60;;;7.03;;
568;SDS011;269;48.884;9.192;2023-05-21T13:45:23;7.73;;;7.23;;
568;SDS011;269;48.884;9.192;2023-05-21T13:47:53;7.87;;;7.37;;
568;SDS011;269;48.884;9.192;2023-05-21T13:50:22;7.57;;;7.07;;
568;SDS011;269;48.884;9.192;2023-05-21T13:52:49;7.57;;;6.93;;
568;SDS011;269;48.884;9.192;2023-05-21T13:55:16;6.73;;;6.33;;
568;SDS011;269;48.884;9.192;2023-05-21T13:57:44;7.10;;;6.60;;
568;SDS011;269;48.884;9.192;2023-05-21T14:00:13;8.50;;;7.87;;
568;SDS011;269;48.884;9.192;2023-05-21T14:02:41;6.93;;;6.40;;
568;SDS011;269;48.884;9.192;2023-05-21T14:05:08;7.40;;;6.67;;
568;SDS011;269;48.884;9.192;2023-05-21T14:07:36;6.10;;;5.70;;
568;SDS011;269;48.884;9.192;2023-05-21T14:10:05;7.40;;;6.70;;
568;SDS011;269;48.884;9.192;2023-05-21T14:12:33;8.60;;;8.10;;
568;SDS011;269;48.884;9.192;2023-05-21T14:15:00;7.00;;;6.50;;
568;SDS011;269;48.884;9.192;2023-05-21T14:17:29;6.80;;;6.40;;
568;SDS011;269;48.884;9.192;2023-05-21T14:19:56;6.73;;;6.30;;
568;SDS011;269;48.884;9.192;2023-05-21T14:22:23;7.63;;;7.13;;
568;SDS011;269;48.884;9.192;2023-05-21T14:24:50;7.03;;;6.53;;
568;SDS011;269;48.884;9.192;2023-05-21T14:27:17;6.13;;;5.63;;
568;SDS011;269;48.884;9.192;2023-05-21T14:29:45;6.40;;;6.00;;
568;SDS011;269;48.884;9.192;2023-05-21T14:32:12;6.70;;;6.10;;
568;SDS011;269;48.884;9.192;2023-05-21T14:34:40;6.40;;;5.90;;
568;SDS011;269;48.884;9.192;2023-05-21T14:37:07;6.93;;;6.43;;
568;SDS011;269;48.884;9.192;2023-05-21T14:39:42;6.57;;;6.07;;
568;SDS011;269;48.884;9.192;2023-05-21T14:42:09;6.20;;;5.70;;
568;SDS011;269;48.884;9.192;2023-05-21T14:44:36;6.03;;;5.53;;
568;SDS011;269;48.884;9.192;2023-05-21T14:47:05;9.50;;;8.80;;
568;SDS011;269;48.884;9.192;2023-05-21T14:49:33;9.83;;;9.07;;
568;SDS011;269;48.884;9.192;2023-05-21T14:52:01;8.60;;;7.90;;
568;SDS011;269;48.884;9.192;2023-05-21T14:54:29;6.80;;;6.10;;
568;SDS011;269;48.884;9.192;2023-05-21T14:56:56;7.50;;;6.80;;
568;SDS011;269;48.884;9.192;2023-05-21T14:59:23;6.10;;;5.60;;
568;SDS011;269;48.884;9.192;2023-05-21T15:01:50;6.70;;;6.20;;
568;SDS011;269;48.884;9.192;2023-05-21T15:04:18;7.47;;;6.77;;
568;SDS011;269;48.884;9.192;2023-05-21T15:06:45;7.70;;;7.10;;
568;SDS011;269;48.884;9.192;2023-05-21T15:09:13;6.73;;;5.83;;
568;SDS011;269;48.884;9.192;2023-05-21T15:11:41;5.93;;;5.53;;
568;SDS011;269;48.884;9.192;2023-05-21T15:14:10;6.17;;;5.67;;
568;SDS011;269;48.884;9.192;2023-05-21T15:16:37;6.63;;;6.07;;
568;SDS011;269;48.884;9.192;2023-05-21T15:19:04;6.60;;;6.10;;
568;SDS011;269;48.884;9.192;2023-05-21T15:21:31;6.13;;;5.73;;
568;SDS011;269;48.884;9.192;2023-05-21T15:23:58;7.03;;;6.50;;
568;SDS011;269;48.884;9.192;2023-05-21T15:26:27;6.20;;;5.80;;
568;SDS011;269;48.884;9.192;2023-05-21T15:28:54;6.40;;;5.93;;
568;SDS011;269;48.884;9.192;2023-05-21T15:31:21;6.97;;;6.47;;
568;SDS011;269;48.884;9.192;2023-05-21T15:33:48;6.87;;;6.20;;
568;SDS011;269;48.884;9.192;2023-05-21T15:36:15;6.47;;;5.93;;
568;SDS011;269;48.884;9.192;2023-05-21T15:38:42;7.00;;;6.40;;
568;SDS011;269;48.884;9.192;2023-05-21T15:41:10;6.70;;;6.30;;
568;SDS011;269;48.884;9.192;2023-05-21T15:43:38;7.20;;;6.50;;
568;SDS011;269;48.884;9.192;2023-05-21T15:46:06;6.73;;;6.27;;
568;SDS011;269;48.884;9.192;2023-05-21T15:48:33;6.70;;;6.23;;